Time;durP1;ratioP1;P1;durP2;ratioP2;P2;SDS_P1;SDS_P2;PMS_P1;PMS_P2;Temp;Humidity;BMP_temperature;BMP_pressure;BME280_temperature;BME280_humidity;BME280_pressure;Samples;Min_cycle;Max_cycle;Signal;HPM_P1;HPM_P2
2023/10/07 05:18:17;;;;;;;1.05;0.98;;;;;;;;;;5071022;27;20453;-80
2023/10/07 05:20:46;;;;;;;1.20;1.02;;;;;;;;;;5054403;28;20037;-81
2023/10/07 05:23:17;;;;;;;1.02;1.02;;;;;;;;;;5055126;28;20063;-81
2023/10/07 05:25:49;;;;;;;4.13;0.73;;;;;;;;;;5051962;28;20021;-81
2023/10/07 05:28:20;;;;;;;1.27;0.85;;;;;;;;;;5088695;28;20024;-81
2023/10/07 05:30:53;;;;;;;3.03;1.73;;;;;;;;;;5057219;28;20071;-81
2023/10/07 05:33:26;;;;;;;1.33;1.05;;;;;;;;;;5056316;28;20858;-81
2023/10/07 05:36:08;;;;;;;1.70;1.02;;;;;;;;;;5051691;28;20047;-82
2023/10/07 05:38:38;;;;;;;5.35;1.35;;;;;;;;;;5059046;28;20024;-82
2023/10/07 05:41:06;;;;;;;4.80;2.30;;;;;;;;;;5050249;28;20056;-82
2023/10/07 05:43:32;;;;;;;2.05;1.42;;;;;;;;;;5053237;28;20033;-82
2023/10/07 05:45:58;;;;;;;2.88;2.00;;;;;;;;;;5053056;28;20036;-82
2023/10/07 05:48:24;;;;;;;2.72;1.55;;;;;;;;;;5055656;28;20037;-82
2023/10/07 05:50:50;;;;;;;1.95;1.73;;;;;;;;;;5049344;28;20035;-81
2023/10/07 05:53:15;;;;;;;1.90;1.42;;;;;;;;;;5052793;28;20128;-82
2023/10/07 05:55:42;;;;;;;2.10;1.55;;;;;;;;;;5056214;28;20021;-86
2023/10/07 05:58:07;;;;;;;2.10;1.23;;;;;;;;;;5054298;28;20083;-84
2023/10/07 06:00:33;;;;;;;2.00;0.85;;;;;;;;;;5055535;28;20028;-85
2023/10/07 06:03:06;;;;;;;2.05;1.45;;;;;;;;;;5051249;28;20168;-85
2023/10/07 06:05:38;;;;;;;3.22;2.20;;;;;;;;;;5055868;28;20025;-85
2023/10/07 06:08:10;;;;;;;1.25;1.15;;;;;;;;;;5053001;28;20025;-84
2023/10/07 06:10:38;;;;;;;3.00;1.58;;;;;;;;;;5049812;28;20037;-86
2023/10/07 06:13:08;;;;;;;1.55;1.25;;;;;;;;;;5051374;28;20017;-87
2023/10/07 06:15:37;;;;;;;3.47;1.65;;;;;;;;;;5045198;28;20037;-87
2023/10/07 06:18:08;;;;;;;5.70;3.43;;;;;;;;;;5050832;28;20447;-86
2023/10/07 06:20:37;;;;;;;4.20;2.42;;;;;;;;;;5057526;28;20305;-87
2023/10/07 06:23:13;;;;;;;3.25;2.05;;;;;;;;;;5048675;28;20482;-84
2023/10/07 06:25:41;;;;;;;3.83;1.77;;;;;;;;;;5046118;28;20035;-87
2023/10/07 06:28:10;;;;;;;1.50;1.25;;;;;;;;;;5044524;28;20982;-85
2023/10/07 06:30:38;;;;;;;2.92;1.70;;;;;;;;;;5040597;28;20037;-84
2023/10/07 06:33:04;;;;;;;6.75;2.83;;;;;;;;;;5036631;28;20053;-85
2023/10/07 06:35:32;;;;;;;2.85;1.65;;;;;;;;;;5033332;28;20051;-89
2023/10/07 06:37:57;;;;;;;3.83;1.50;;;;;;;;;;5052822;28;20025;-82
2023/10/07 06:40:28;;;;;;;2.65;1.67;;;;;;;;;;5029117;28;20037;-81
2023/10/07 06:42:56;;;;;;;1.88;1.65;;;;;;;;;;5027410;28;20399;-80
2023/10/07 06:45:35;;;;;;;2.00;1.80;;;;;;;;;;5029360;28;20041;-83
2023/10/07 06:48:02;;;;;;;3.33;2.42;;;;;;;;;;5028395;28;20513;-83
2023/10/07 06:50:28;;;;;;;3.60;1.83;;;;;;;;;;5024775;28;20041;-81
2023/10/07 06:52:57;;;;;;;1.60;1.42;;;;;;;;;;5023973;28;20064;-80
2023/10/07 06:55:23;;;;;;;2.53;1.48;;;;;;;;;;5025344;28;20033;-82
2023/10/07 06:57:53;;;;;;;2.28;1.75;;;;;;;;;;5028427;28;20036;-81
2023/10/07 07:00:27;;;;;;;2.50;2.30;;;;;;;;;;5025668;28;20067;-81
2023/10/07 07:02:59;;;;;;;2.08;1.40;;;;;;;;;;5026968;28;20493;-81
2023/10/07 07:05:26;;;;;;;3.08;1.95;;;;;;;;;;5026245;28;20025;-81
2023/10/07 07:07:54;;;;;;;3.45;2.55;;;;;;;;;;5024304;28;20068;-81
2023/10/07 07:10:27;;;;;;;3.80;2.08;;;;;;;;;;5025754;28;20045;-81
2023/10/07 07:13:04;;;;;;;1.55;1.30;;;;;;;;;;5025346;28;20037;-82
2023/10/07 07:15:36;;;;;;;1.67;1.50;;;;;;;;;;5034004;28;20440;-81
2023/10/07 07:23:45;;;;;;;2.15;1.92;;;;;;;;;;5036594;28;20887;-81
2023/10/07 07:26:11;;;;;;;3.15;1.70;;;;;;;;;;5039463;28;20036;-82
2023/10/07 07:28:44;;;;;;;3.70;2.05;;;;;;;;;;5032841;28;20066;-81
2023/10/07 07:31:19;;;;;;;4.47;2.10;;;;;;;;;;5033932;28;20358;-84
2023/10/07 07:33:48;;;;;;;4.00;2.13;;;;;;;;;;5063938;28;20025;-81
2023/10/07 07:36:37;;;;;;;4.13;1.90;;;;;;;;;;5033554;28;20477;-81
2023/10/07 07:39:09;;;;;;;4.28;2.35;;;;;;;;;;5034829;28;20071;-82
2023/10/07 07:41:38;;;;;;;5.97;3.00;;;;;;;;;;5032026;28;20091;-81
2023/10/07 07:44:10;;;;;;;1.90;1.77;;;;;;;;;;5030871;28;20033;-81
2023/10/07 07:46:52;;;;;;;3.65;2.13;;;;;;;;;;5031284;28;20075;-82
2023/10/07 07:49:19;;;;;;;2.53;1.60;;;;;;;;;;5035441;28;20040;-79
2023/10/07 07:54:29;;;;;;;3.63;3.15;;;;;;;;;;5038934;28;20041;-81
2023/10/07 07:56:55;;;;;;;6.90;2.53;;;;;;;;;;5036502;28;20025;-82
2023/10/07 07:59:22;;;;;;;8.20;2.30;;;;;;;;;;5040010;28;20036;-81
2023/10/07 08:02:01;;;;;;;1.63;1.17;;;;;;;;;;5039534;28;20078;-80
2023/10/07 08:04:39;;;;;;;3.20;1.52;;;;;;;;;;5036380;28;20021;-80
2023/10/07 08:07:18;;;;;;;4.55;2.67;;;;;;;;;;5036617;28;20032;-81
2023/10/07 08:09:50;;;;;;;1.92;1.23;;;;;;;;;;5038997;28;20029;-80
2023/10/07 08:12:33;;;;;;;5.15;2.85;;;;;;;;;;5035313;28;20020;-81
2023/10/07 08:15:06;;;;;;;4.55;2.47;;;;;;;;;;5032658;28;20036;-81
2023/10/07 08:17:32;;;;;;;3.42;2.38;;;;;;;;;;5037793;28;20124;-81
2023/10/07 08:20:07;;;;;;;3.15;2.05;;;;;;;;;;5036163;28;20132;-79
2023/10/07 08:22:33;;;;;;;4.05;2.20;;;;;;;;;;5049798;28;20035;-81
2023/10/07 08:25:05;;;;;;;4.45;1.70;;;;;;;;;;5036517;28;20030;-82
2023/10/07 08:27:49;;;;;;;8.90;2.97;;;;;;;;;;5041404;28;20029;-82
2023/10/07 08:30:29;;;;;;;2.20;1.90;;;;;;;;;;5038420;28;20034;-81
2023/10/07 08:32:55;;;;;;;2.65;2.08;;;;;;;;;;5040396;28;20036;-81
2023/10/07 08:35:25;;;;;;;3.05;1.95;;;;;;;;;;5034510;28;20783;-82
2023/10/07 08:37:51;;;;;;;6.22;2.88;;;;;;;;;;5039248;28;20388;-81
2023/10/07 08:40:28;;;;;;;3.97;2.53;;;;;;;;;;5040363;28;20028;-80
2023/10/07 08:42:58;;;;;;;4.85;3.42;;;;;;;;;;5036511;28;20066;-82
2023/10/07 08:45:28;;;;;;;6.57;4.22;;;;;;;;;;5034382;28;20033;-82
2023/10/07 08:48:08;;;;;;;9.70;2.95;;;;;;;;;;5033219;28;20498;-82
2023/10/07 08:50:47;;;;;;;2.65;2.13;;;;;;;;;;5041864;28;20105;-82
2023/10/07 08:53:15;;;;;;;3.38;2.35;;;;;;;;;;5039880;28;20035;-82
2023/10/07 08:55:43;;;;;;;5.30;2.10;;;;;;;;;;5039420;28;20025;-83
2023/10/07 08:58:11;;;;;;;6.03;3.05;;;;;;;;;;5042230;28;20511;-82
2023/10/07 09:00:45;;;;;;;3.03;1.95;;;;;;;;;;5036543;28;20030;-82
2023/10/07 09:03:14;;;;;;;4.03;2.13;;;;;;;;;;5040812;28;20370;-84
2023/10/07 09:05:41;;;;;;;2.28;1.90;;;;;;;;;;5036115;28;20108;-81
2023/10/07 09:08:11;;;;;;;3.30;2.08;;;;;;;;;;5036427;28;20037;-82
2023/10/07 09:10:38;;;;;;;3.85;2.35;;;;;;;;;;5036042;28;20055;-81
2023/10/07 09:13:06;;;;;;;22.08;2.70;;;;;;;;;;5035596;28;20572;-82
2023/10/07 09:15:36;;;;;;;3.10;2.30;;;;;;;;;;5033781;28;20393;-83
2023/10/07 09:18:05;;;;;;;3.05;2.25;;;;;;;;;;5036545;28;20041;-82
2023/10/07 09:20:32;;;;;;;4.15;2.70;;;;;;;;;;5037187;28;20496;-84
2023/10/07 09:23:14;;;;;;;5.22;2.80;;;;;;;;;;5039440;28;20479;-83
2023/10/07 09:25:46;;;;;;;6.15;2.78;;;;;;;;;;5036475;28;20029;-80
2023/10/07 09:28:13;;;;;;;5.18;2.30;;;;;;;;;;5035030;28;20488;-81
2023/10/07 09:33:13;;;;;;;2.22;1.38;;;;;;;;;;5039173;28;20040;-81
2023/10/07 09:35:43;;;;;;;2.88;2.50;;;;;;;;;;5035472;28;20033;-80
2023/10/07 09:38:12;;;;;;;4.30;2.30;;;;;;;;;;5038487;28;20551;-82
2023/10/07 09:43:26;;;;;;;14.60;1.52;;;;;;;;;;5036635;28;20040;-84
2023/10/07 09:45:58;;;;;;;2.33;2.08;;;;;;;;;;5042752;28;20029;-86
2023/10/07 09:48:33;;;;;;;2.83;2.05;;;;;;;;;;5041843;28;20026;-85
2023/10/07 09:51:00;;;;;;;3.85;2.75;;;;;;;;;;5036550;28;20036;-84
2023/10/07 09:53:40;;;;;;;1.40;1.30;;;;;;;;;;5042239;28;20048;-82
2023/10/07 09:56:21;;;;;;;4.72;2.70;;;;;;;;;;5035749;28;20052;-82
2023/10/07 09:59:14;;;;;;;4.63;2.55;;;;;;;;;;5039145;28;20086;-81
2023/10/07 10:02:25;;;;;;;3.53;2.50;;;;;;;;;;5035578;28;20071;-81
2023/10/07 10:05:44;;;;;;;9.63;2.65;;;;;;;;;;5045041;28;20369;-82
2023/10/07 10:08:27;;;;;;;3.28;2.40;;;;;;;;;;5039160;28;20041;-81
2023/10/07 10:10:57;;;;;;;3.20;2.88;;;;;;;;;;5037958;28;20057;-81
2023/10/07 10:16:00;;;;;;;4.43;3.13;;;;;;;;;;5037459;28;20035;-80
2023/10/07 10:18:40;;;;;;;2.13;1.92;;;;;;;;;;5039969;28;20025;-81
2023/10/07 10:21:15;;;;;;;;;;;;;;;;;;5044969;28;20026;-80
2023/10/07 10:23:44;;;;;;;3.13;2.25;;;;;;;;;;5039512;28;19920;-81
2023/10/07 10:26:14;;;;;;;5.95;2.88;;;;;;;;;;5045116;28;20048;-82
2023/10/07 10:28:41;;;;;;;5.10;2.58;;;;;;;;;;5040662;28;20037;-82
2023/10/07 10:31:18;;;;;;;2.42;2.13;;;;;;;;;;5042763;28;20468;-81
2023/10/07 10:33:44;;;;;;;3.05;2.40;;;;;;;;;;5039164;28;20465;-80
2023/10/07 10:36:12;;;;;;;3.58;2.92;;;;;;;;;;5040579;28;20143;-82
2023/10/07 10:38:38;;;;;;;5.72;2.45;;;;;;;;;;5068668;28;20548;-80
2023/10/07 10:43:24;;;;;;;3.00;2.10;;;;;;;;;;5117439;27;20501;-83
2023/10/07 10:46:07;;;;;;;2.92;2.25;;;;;;;;;;5117385;27;20433;-81
2023/10/07 10:48:34;;;;;;;3.05;2.10;;;;;;;;;;5110762;28;20445;-81
2023/10/07 10:51:07;;;;;;;2.58;2.38;;;;;;;;;;5113203;28;20111;-81
2023/10/07 10:53:40;;;;;;;3.10;2.05;;;;;;;;;;5119755;28;20108;-81
2023/10/07 10:56:07;;;;;;;7.00;2.50;;;;;;;;;;5110869;28;20065;-80
2023/10/07 10:58:37;;;;;;;5.97;2.97;;;;;;;;;;5124097;27;20023;-83
2023/10/07 11:01:05;;;;;;;7.80;2.88;;;;;;;;;;5111079;28;20115;-82
2023/10/07 11:03:31;;;;;;;3.92;2.90;;;;;;;;;;5115896;27;20034;-81
2023/10/07 11:05:57;;;;;;;4.95;2.55;;;;;;;;;;5109831;28;20032;-82
2023/10/07 11:08:24;;;;;;;3.60;2.30;;;;;;;;;;5106953;28;20030;-81
2023/10/07 11:10:54;;;;;;;2.63;2.13;;;;;;;;;;5110265;28;20042;-82
2023/10/07 11:13:28;;;;;;;1.73;1.63;;;;;;;;;;5114727;28;20019;-80
2023/10/07 11:16:10;;;;;;;3.08;2.10;;;;;;;;;;5117648;28;20154;-80
2023/10/07 11:18:41;;;;;;;2.28;1.70;;;;;;;;;;5106978;28;20460;-80
2023/10/07 11:21:18;;;;;;;2.60;2.05;;;;;;;;;;5113999;27;20032;-81
2023/10/07 11:23:53;;;;;;;2.25;2.05;;;;;;;;;;5106857;28;20026;-81
2023/10/07 11:26:20;;;;;;;2.88;2.28;;;;;;;;;;5109074;28;20043;-80
2023/10/07 11:28:48;;;;;;;3.30;2.55;;;;;;;;;;5109702;28;20034;-81
2023/10/07 11:31:20;;;;;;;3.65;2.05;;;;;;;;;;5116943;28;20027;-80
2023/10/07 11:33:51;;;;;;;8.73;2.38;;;;;;;;;;5108823;28;20030;-81
2023/10/07 11:36:17;;;;;;;3.03;1.85;;;;;;;;;;5106297;28;20123;-81
2023/10/07 11:38:43;;;;;;;3.40;2.50;;;;;;;;;;5114415;28;20549;-83
2023/10/07 11:41:10;;;;;;;3.90;2.70;;;;;;;;;;5106983;27;20054;-80
2023/10/07 11:43:43;;;;;;;1.80;1.65;;;;;;;;;;5107233;27;20028;-81
2023/10/07 11:46:11;;;;;;;4.30;2.33;;;;;;;;;;5110599;28;20451;-81
2023/10/07 11:48:41;;;;;;;5.82;3.03;;;;;;;;;;5112471;28;20023;-83
2023/10/07 11:51:10;;;;;;;4.22;2.17;;;;;;;;;;5115995;28;20119;-81
2023/10/07 11:53:36;;;;;;;2.20;1.67;;;;;;;;;;5097243;28;20119;-82
2023/10/07 11:56:05;;;;;;;2.25;1.85;;;;;;;;;;5093840;28;20046;-80
2023/10/07 11:58:32;;;;;;;8.00;2.17;;;;;;;;;;5103523;28;20055;-79
2023/10/07 12:00:57;;;;;;;4.10;2.17;;;;;;;;;;5099544;28;20024;-82
2023/10/07 12:03:25;;;;;;;2.00;1.70;;;;;;;;;;5093564;28;20032;-80
2023/10/07 12:05:50;;;;;;;3.63;1.85;;;;;;;;;;5101774;28;20035;-80
2023/10/07 12:08:16;;;;;;;10.15;2.60;;;;;;;;;;5097291;28;20112;-80
2023/10/07 12:10:41;;;;;;;7.85;2.25;;;;;;;;;;5096568;28;20030;-81
2023/10/07 12:13:11;;;;;;;3.75;1.73;;;;;;;;;;5094184;28;20020;-83
2023/10/07 12:15:42;;;;;;;2.53;1.55;;;;;;;;;;5092404;28;20028;-81
2023/10/07 12:18:09;;;;;;;1.65;1.55;;;;;;;;;;5098588;28;20059;-80
2023/10/07 12:20:34;;;;;;;1.80;1.55;;;;;;;;;;5094791;28;20391;-81
2023/10/07 12:23:00;;;;;;;3.75;2.25;;;;;;;;;;5102541;28;20024;-80
2023/10/07 12:25:26;;;;;;;2.60;2.10;;;;;;;;;;5102022;28;20028;-80
2023/10/07 12:27:51;;;;;;;5.82;2.15;;;;;;;;;;5098020;28;20043;-79
2023/10/07 12:30:21;;;;;;;3.08;2.08;;;;;;;;;;5098606;28;20027;-82
2023/10/07 12:32:50;;;;;;;3.63;1.98;;;;;;;;;;5090258;28;20028;-81
2023/10/07 12:35:17;;;;;;;2.70;1.38;;;;;;;;;;5091431;28;20563;-81
2023/10/07 12:37:50;;;;;;;1.30;1.20;;;;;;;;;;5095299;28;20027;-80
2023/10/07 12:40:20;;;;;;;3.53;2.08;;;;;;;;;;5096977;28;20479;-80
2023/10/07 12:42:50;;;;;;;2.22;1.30;;;;;;;;;;5103162;28;20044;-80
2023/10/07 12:45:54;;;;;;;4.97;1.80;;;;;;;;;;5074477;28;20723;-82
2023/10/07 12:48:20;;;;;;;2.88;1.50;;;;;;;;;;5050046;28;20045;-81
2023/10/07 12:50:46;;;;;;;3.70;1.58;;;;;;;;;;5050171;28;20107;-81
2023/10/07 12:53:11;;;;;;;3.22;1.25;;;;;;;;;;5046791;28;20891;-80
2023/10/07 12:55:39;;;;;;;2.67;1.20;;;;;;;;;;5053283;28;20032;-79
2023/10/07 12:58:15;;;;;;;3.90;2.08;;;;;;;;;;5051922;28;20052;-79
2023/10/07 13:00:42;;;;;;;4.13;1.88;;;;;;;;;;5051039;28;20457;-78
2023/10/07 13:03:08;;;;;;;2.55;1.45;;;;;;;;;;5054151;28;20461;-78
2023/10/07 13:05:37;;;;;;;1.50;1.10;;;;;;;;;;5043841;28;20032;-79
2023/10/07 13:08:16;;;;;;;2.28;1.60;;;;;;;;;;5061797;28;20044;-79
2023/10/07 13:10:43;;;;;;;2.13;1.50;;;;;;;;;;5046788;28;20033;-80
2023/10/07 13:13:08;;;;;;;2.95;1.77;;;;;;;;;;5048888;28;20029;-79
2023/10/07 13:15:35;;;;;;;2.72;1.50;;;;;;;;;;5049602;28;20067;-82
2023/10/07 13:18:02;;;;;;;9.93;2.13;;;;;;;;;;5054673;28;20028;-83
2023/10/07 13:20:28;;;;;;;2.67;1.60;;;;;;;;;;5058901;28;20075;-81
2023/10/07 13:22:55;;;;;;;1.92;1.20;;;;;;;;;;5057126;28;20024;-82
2023/10/07 13:25:21;;;;;;;2.08;1.27;;;;;;;;;;5046872;28;20558;-83
2023/10/07 13:27:48;;;;;;;2.30;1.25;;;;;;;;;;5050555;28;20033;-84
2023/10/07 13:30:16;;;;;;;2.47;1.08;;;;;;;;;;5056933;28;20025;-81
2023/10/07 13:32:46;;;;;;;2.08;0.98;;;;;;;;;;5045734;28;20492;-83
2023/10/07 13:35:16;;;;;;;1.27;0.77;;;;;;;;;;5052653;28;20017;-81
2023/10/07 13:37:46;;;;;;;1.75;1.40;;;;;;;;;;5048129;28;20110;-81
2023/10/07 13:40:15;;;;;;;2.10;1.20;;;;;;;;;;5051449;28;20114;-82
2023/10/07 13:42:59;;;;;;;1.50;0.75;;;;;;;;;;5045525;28;20410;-82
2023/10/07 13:45:28;;;;;;;1.02;0.80;;;;;;;;;;5050652;28;20072;-81
2023/10/07 13:47:55;;;;;;;1.10;0.80;;;;;;;;;;5047857;28;20043;-85
2023/10/07 13:50:24;;;;;;;1.85;0.98;;;;;;;;;;5053511;28;20075;-85
2023/10/07 13:52:59;;;;;;;1.95;1.05;;;;;;;;;;5051591;28;20556;-85
2023/10/07 13:56:10;;;;;;;1.42;0.98;;;;;;;;;;5076948;28;20096;-85
2023/10/07 13:58:20;;;;;;;2.03;1.05;;;;;;;;;;5041840;28;20484;-88
2023/10/07 14:00:46;;;;;;;2.50;1.45;;;;;;;;;;5035747;28;20035;-85
2023/10/07 14:03:20;;;;;;;1.27;0.80;;;;;;;;;;5042408;28;20125;-86
2023/10/07 14:05:56;;;;;;;1.45;1.20;;;;;;;;;;5037617;28;20112;-88
2023/10/07 14:08:36;;;;;;;2.05;1.17;;;;;;;;;;5038369;28;20044;-87
2023/10/07 14:11:04;;;;;;;1.60;1.10;;;;;;;;;;5043406;28;20021;-88
2023/10/07 14:13:32;;;;;;;2.92;0.93;;;;;;;;;;5040705;28;20033;-87
2023/10/07 14:16:01;;;;;;;1.42;0.82;;;;;;;;;;5041953;28;20441;-85
2023/10/07 14:18:30;;;;;;;2.15;1.27;;;;;;;;;;5040397;28;20036;-87
2023/10/07 14:21:06;;;;;;;1.05;0.88;;;;;;;;;;5042490;28;20029;-88
2023/10/07 14:23:34;;;;;;;1.40;0.77;;;;;;;;;;5040086;28;20017;-88
2023/10/07 14:26:03;;;;;;;1.52;1.05;;;;;;;;;;5045186;28;20025;-87
2023/10/07 14:28:29;;;;;;;;;;;;;;;;;;5037907;28;20036;-85
2023/10/07 14:30:55;;;;;;;1.17;0.98;;;;;;;;;;5039144;28;19913;-87
2023/10/07 14:33:22;;;;;;;4.22;1.42;;;;;;;;;;5043219;28;20025;-84
2023/10/07 14:35:48;;;;;;;3.78;0.98;;;;;;;;;;5038763;28;20029;-85
2023/10/07 14:38:14;;;;;;;2.50;0.98;;;;;;;;;;5037860;28;20072;-85
2023/10/07 14:40:46;;;;;;;8.05;0.95;;;;;;;;;;5043193;28;20632;-85
2023/10/07 14:43:12;;;;;;;1.90;1.30;;;;;;;;;;5041743;28;20107;-86
2023/10/07 14:45:50;;;;;;;3.05;1.45;;;;;;;;;;5038710;28;20140;-88
2023/10/07 14:48:16;;;;;;;1.88;1.08;;;;;;;;;;5039452;28;20025;-84
2023/10/07 14:50:43;;;;;;;0.82;0.70;;;;;;;;;;5036135;28;20072;-86
2023/10/07 14:53:09;;;;;;;1.88;0.98;;;;;;;;;;5042540;28;20036;-86
2023/10/07 14:55:35;;;;;;;2.95;1.20;;;;;;;;;;5036074;28;20108;-84
2023/10/07 14:58:01;;;;;;;1.30;0.88;;;;;;;;;;5038507;28;20040;-88
2023/10/07 15:00:32;;;;;;;2.33;1.27;;;;;;;;;;5046281;28;20051;-90
2023/10/07 15:03:01;;;;;;;1.33;1.23;;;;;;;;;;5040658;28;20477;-88
2023/10/07 15:05:27;;;;;;;1.83;0.70;;;;;;;;;;5042758;28;20377;-87
2023/10/07 15:07:53;;;;;;;1.65;0.85;;;;;;;;;;5040911;28;20029;-87
2023/10/07 15:10:18;;;;;;;1.90;0.93;;;;;;;;;;5044899;28;20059;-88
2023/10/07 15:12:44;;;;;;;2.08;1.17;;;;;;;;;;5040544;28;20039;-87
2023/10/07 15:15:14;;;;;;;2.15;1.05;;;;;;;;;;5042563;28;20464;-86
2023/10/07 15:17:40;;;;;;;1.08;0.85;;;;;;;;;;5041004;28;20087;-84
2023/10/07 15:20:05;;;;;;;1.15;0.88;;;;;;;;;;5041894;28;20029;-86
2023/10/07 15:22:32;;;;;;;2.63;1.20;;;;;;;;;;5040688;28;20438;-85
2023/10/07 15:24:59;;;;;;;1.23;0.85;;;;;;;;;;5044082;28;20377;-86
2023/10/07 15:27:28;;;;;;;2.38;1.20;;;;;;;;;;5043502;28;20025;-86
2023/10/07 15:30:03;;;;;;;1.80;1.17;;;;;;;;;;5037300;28;20558;-86
2023/10/07 15:32:32;;;;;;;1.75;1.10;;;;;;;;;;5044638;28;20068;-86
2023/10/07 15:34:58;;;;;;;2.03;1.27;;;;;;;;;;5040922;28;20373;-84
2023/10/07 15:37:26;;;;;;;0.65;0.63;;;;;;;;;;5041274;28;20029;-86
2023/10/07 15:39:52;;;;;;;1.90;0.90;;;;;;;;;;5042935;28;20106;-86
2023/10/07 15:42:20;;;;;;;1.85;0.80;;;;;;;;;;5041014;28;20021;-87
2023/10/07 15:44:46;;;;;;;1.33;0.80;;;;;;;;;;5038856;28;20040;-86
2023/10/07 15:47:12;;;;;;;1.30;0.75;;;;;;;;;;5044622;28;20021;-85
2023/10/07 15:49:37;;;;;;;3.15;1.15;;;;;;;;;;5040422;28;20033;-84
2023/10/07 15:52:02;;;;;;;3.53;1.27;;;;;;;;;;5038569;28;20083;-84
2023/10/07 15:54:28;;;;;;;7.75;1.27;;;;;;;;;;5039873;28;20024;-82
2023/10/07 15:56:54;;;;;;;0.60;0.60;;;;;;;;;;5040802;28;20040;-84
2023/10/07 15:59:20;;;;;;;1.70;0.95;;;;;;;;;;5039690;28;20033;-85
2023/10/07 16:01:46;;;;;;;1.55;1.38;;;;;;;;;;5043525;28;20150;-85
2023/10/07 16:04:13;;;;;;;1.27;1.05;;;;;;;;;;5038394;28;20025;-87
2023/10/07 16:06:40;;;;;;;4.80;1.00;;;;;;;;;;5042829;28;20040;-82
2023/10/07 16:09:12;;;;;;;2.58;1.00;;;;;;;;;;5034981;28;20053;-82
2023/10/07 16:11:40;;;;;;;1.65;1.20;;;;;;;;;;5034805;28;20032;-83
2023/10/07 16:14:05;;;;;;;2.20;1.30;;;;;;;;;;5038215;28;20457;-82
2023/10/07 16:16:32;;;;;;;1.45;1.30;;;;;;;;;;5036748;28;20025;-83
2023/10/07 16:18:57;;;;;;;1.55;0.90;;;;;;;;;;5039953;28;20033;-83
2023/10/07 16:21:23;;;;;;;2.50;0.80;;;;;;;;;;5033152;28;20083;-82
2023/10/07 16:23:50;;;;;;;2.38;1.20;;;;;;;;;;5032907;28;20469;-82
2023/10/07 16:26:18;;;;;;;1.27;0.73;;;;;;;;;;5042660;28;20022;-82
2023/10/07 16:28:44;;;;;;;1.35;0.95;;;;;;;;;;5038274;28;20029;-82
2023/10/07 16:31:10;;;;;;;2.00;0.82;;;;;;;;;;5039120;28;20025;-84
2023/10/07 16:33:35;;;;;;;2.47;1.27;;;;;;;;;;5041981;28;20032;-83
2023/10/07 16:36:06;;;;;;;3.00;1.75;;;;;;;;;;5033685;28;20025;-84
2023/10/07 16:38:35;;;;;;;1.80;0.93;;;;;;;;;;5041198;28;20046;-83
2023/10/07 16:41:03;;;;;;;3.75;1.60;;;;;;;;;;5039645;28;20030;-85
2023/10/07 16:43:30;;;;;;;1.13;0.70;;;;;;;;;;5037896;28;20031;-83
2023/10/07 16:45:57;;;;;;;1.00;0.77;;;;;;;;;;5037662;28;20030;-83
2023/10/07 16:48:28;;;;;;;3.28;1.20;;;;;;;;;;5038551;28;20025;-84
2023/10/07 16:50:55;;;;;;;2.17;1.00;;;;;;;;;;5038703;28;20096;-83
2023/10/07 16:53:21;;;;;;;1.85;1.35;;;;;;;;;;5037713;28;20029;-83
2023/10/07 16:55:53;;;;;;;2.70;0.95;;;;;;;;;;5041308;28;20372;-83
2023/10/07 16:58:19;;;;;;;0.70;0.70;;;;;;;;;;5041308;28;20048;-83
2023/10/07 17:00:45;;;;;;;1.08;0.65;;;;;;;;;;5038767;28;20059;-84
2023/10/07 17:03:11;;;;;;;1.58;0.98;;;;;;;;;;5037525;28;20033;-84
2023/10/07 17:05:36;;;;;;;2.08;1.23;;;;;;;;;;5037368;28;20028;-84
2023/10/07 17:08:04;;;;;;;0.73;0.63;;;;;;;;;;5041148;28;20040;-84
2023/10/07 17:10:37;;;;;;;1.58;0.82;;;;;;;;;;5041885;28;20032;-84
2023/10/07 17:13:02;;;;;;;1.50;1.15;;;;;;;;;;5042035;28;20076;-83
2023/10/07 17:15:28;;;;;;;1.05;0.65;;;;;;;;;;5039703;28;20068;-84
2023/10/07 17:17:54;;;;;;;1.77;0.82;;;;;;;;;;5038732;28;20051;-83
2023/10/07 17:20:19;;;;;;;2.72;1.00;;;;;;;;;;5037974;28;20476;-84
2023/10/07 17:22:45;;;;;;;1.33;1.02;;;;;;;;;;5034045;28;20025;-84
2023/10/07 17:25:12;;;;;;;1.10;0.95;;;;;;;;;;5038074;28;20160;-83
2023/10/07 17:27:37;;;;;;;1.67;0.70;;;;;;;;;;5034431;28;20040;-84
2023/10/07 17:30:06;;;;;;;2.30;0.93;;;;;;;;;;5034929;28;20033;-83
2023/10/07 17:32:31;;;;;;;3.17;1.10;;;;;;;;;;5038882;28;20108;-82
2023/10/07 17:34:57;;;;;;;1.35;0.93;;;;;;;;;;5045650;28;20499;-84
2023/10/07 17:37:23;;;;;;;2.03;0.68;;;;;;;;;;5043119;28;20032;-83
2023/10/07 17:39:48;;;;;;;0.95;0.93;;;;;;;;;;5042097;28;20025;-82
2023/10/07 17:42:14;;;;;;;5.68;1.20;;;;;;;;;;5041302;28;20098;-84
2023/10/07 17:44:39;;;;;;;1.85;0.88;;;;;;;;;;5046311;28;20374;-83
2023/10/07 17:47:05;;;;;;;1.23;0.88;;;;;;;;;;5043548;28;20024;-84
2023/10/07 17:49:30;;;;;;;2.42;0.85;;;;;;;;;;5042941;28;20112;-84
2023/10/07 17:51:56;;;;;;;4.15;1.08;;;;;;;;;;5044076;28;20048;-85
2023/10/07 17:54:21;;;;;;;2.92;0.98;;;;;;;;;;5045146;28;20022;-84
2023/10/07 17:56:47;;;;;;;1.15;0.45;;;;;;;;;;5041069;28;20373;-83
2023/10/07 17:59:12;;;;;;;0.90;0.55;;;;;;;;;;5042100;28;20029;-83
2023/10/07 18:01:38;;;;;;;0.90;0.68;;;;;;;;;;5040134;28;20033;-83
2023/10/07 18:04:03;;;;;;;1.65;0.88;;;;;;;;;;5039206;28;20461;-84
2023/10/07 18:06:29;;;;;;;2.83;1.52;;;;;;;;;;5046568;28;20056;-84
2023/10/07 18:08:54;;;;;;;1.85;1.08;;;;;;;;;;5040119;28;20033;-83
2023/10/07 18:11:20;;;;;;;1.52;0.50;;;;;;;;;;5042131;28;20025;-82
2023/10/07 18:13:46;;;;;;;1.20;0.65;;;;;;;;;;5044621;28;20025;-82
2023/10/07 18:16:12;;;;;;;1.52;0.95;;;;;;;;;;5038554;28;20025;-81
2023/10/07 18:18:38;;;;;;;1.27;0.70;;;;;;;;;;5037064;28;20522;-82
2023/10/07 18:21:04;;;;;;;2.78;1.15;;;;;;;;;;5042756;28;20021;-85
2023/10/07 18:23:29;;;;;;;1.35;0.73;;;;;;;;;;5041784;28;20029;-82
2023/10/07 18:25:55;;;;;;;1.83;1.08;;;;;;;;;;5041346;28;20397;-82
2023/10/07 18:28:21;;;;;;;1.88;1.27;;;;;;;;;;5040506;28;20029;-84
2023/10/07 18:30:46;;;;;;;1.40;0.85;;;;;;;;;;5040722;28;20036;-83
2023/10/07 18:33:13;;;;;;;2.22;0.73;;;;;;;;;;5044181;28;20468;-83
2023/10/07 18:35:39;;;;;;;0.40;0.40;;;;;;;;;;5038377;28;20079;-83
2023/10/07 18:38:05;;;;;;;1.33;0.75;;;;;;;;;;5043284;28;20099;-82
2023/10/07 18:40:30;;;;;;;2.22;1.40;;;;;;;;;;5040255;28;20029;-83
2023/10/07 18:42:56;;;;;;;1.23;0.90;;;;;;;;;;5042296;28;20112;-83
2023/10/07 18:45:21;;;;;;;1.90;1.08;;;;;;;;;;5044051;28;20077;-85
2023/10/07 18:47:47;;;;;;;0.60;0.52;;;;;;;;;;5041672;28;20048;-83
2023/10/07 18:50:14;;;;;;;1.20;0.80;;;;;;;;;;5042806;28;20079;-83
2023/10/07 18:52:40;;;;;;;1.60;1.38;;;;;;;;;;5038535;28;20381;-83
2023/10/07 18:55:06;;;;;;;2.38;1.92;;;;;;;;;;5038677;28;20021;-82
2023/10/07 18:57:31;;;;;;;2.38;1.63;;;;;;;;;;5045413;28;20350;-83
2023/10/07 18:59:57;;;;;;;3.83;1.25;;;;;;;;;;5038608;28;20287;-83
2023/10/07 19:02:23;;;;;;;0.85;0.50;;;;;;;;;;5040359;28;20040;-82
2023/10/07 19:04:49;;;;;;;0.80;0.80;;;;;;;;;;5046951;28;20037;-82
2023/10/07 19:07:17;;;;;;;3.78;1.20;;;;;;;;;;5038677;28;20531;-83
2023/10/07 19:09:42;;;;;;;0.98;0.63;;;;;;;;;;5036337;28;20036;-83
2023/10/07 19:12:08;;;;;;;1.35;0.90;;;;;;;;;;5041821;28;20028;-82
2023/10/07 19:14:33;;;;;;;0.68;0.60;;;;;;;;;;5040895;28;20052;-83
2023/10/07 19:16:59;;;;;;;2.40;0.63;;;;;;;;;;5044244;28;20048;-82
